Terminal Aerodrome Forecast
Issued by NWS

Home | Current Version | Previous Version | Text Only | Print | Product List | Glossary On
Versions: 1 2 3 4 5 6 7 8 9 10 11 12 13 14 15
000
FTUS46 KSEW 252300
TAFBLI
TAF
KBLI 252335Z 2600/2624 17007KT P6SM SCT025 BKN040
     FM261100 17005KT P6SM BKN012 OVC020
     FM262000 19007KT P6SM SCT025 BKN040=

USA.gov is the U.S. government's official web portal to all federal, state and local government web resources and services.